Weather at Aji Pangeran Tumenggung Pranoto International Airport

Public forecast

Using degrees Celsius for public forecast. Weather courtesy of forecast.io.

Closest aviation weather report (METAR) to Aji Pangeran Tumenggung Pranoto International Airport

Report is more than 2 hours old.

Closest report is Sultan Aji Muhamad Sulaiman Airport, 57.8 nm (107.0 km) SSW. Retrieved 2021/12/03 13:30 UTC (5 hours ago):

WALL 031330Z 21003KT 140V290 9000 FEW020 29/27 Q1010 NOSIG

Aviation forecast (TAF) for Aji Pangeran Tumenggung Pranoto International Airport

Retrieved 2021/12/03 18:00 UTC (59 minutes ago):

TAF WALS 031700Z 0318/0406 VRB02KT 8000 SCT015 TEMPO 0321/0324 5000 BR